sensor_id;sensor_type;location;lat;lon;timestamp;pressure;altitude;pressure_sealevel;temperature;humidity
54453;BME280;40363;52.270;10.546;2022-11-20T00:00:16;78064.03;;;-147.06;78.88
54453;BME280;40363;52.270;10.546;2022-11-20T00:02:44;78061.97;;;-147.06;78.73
54453;BME280;40363;52.270;10.546;2022-11-20T00:05:10;78053.75;;;-147.06;78.45
54453;BME280;40363;52.270;10.546;2022-11-20T00:07:37;78055.78;;;-147.06;77.88
54453;BME280;40363;52.270;10.546;2022-11-20T00:10:04;78043.47;;;-147.06;77.72
54453;BME280;40363;52.270;10.546;2022-11-20T00:12:31;78033.19;;;-147.06;77.70
54453;BME280;40363;52.270;10.546;2022-11-20T00:14:58;78020.84;;;-147.06;77.52
54453;BME280;40363;52.270;10.546;2022-11-20T00:17:24;78029.06;;;-147.06;77.48
54453;BME280;40363;52.270;10.546;2022-11-20T00:19:52;78027.00;;;-147.06;77.41
54453;BME280;40363;52.270;10.546;2022-11-20T00:22:19;78022.91;;;-147.06;77.23
54453;BME280;40363;52.270;10.546;2022-11-20T00:24:46;78024.94;;;-147.06;76.99
54453;BME280;40363;52.270;10.546;2022-11-20T00:27:12;78022.91;;;-147.06;76.81
54453;BME280;40363;52.270;10.546;2022-11-20T00:29:39;78018.78;;;-147.06;77.04
54453;BME280;40363;52.270;10.546;2022-11-20T00:32:06;78012.63;;;-147.06;77.00
54453;BME280;40363;52.270;10.546;2022-11-20T00:34:32;78014.66;;;-147.06;76.91
54453;BME280;40363;52.270;10.546;2022-11-20T00:37:00;78004.38;;;-147.06;76.88
54453;BME280;40363;52.270;10.546;2022-11-20T00:39:27;78020.84;;;-147.06;76.91
54453;BME280;40363;52.270;10.546;2022-11-20T00:41:53;78024.94;;;-147.06;76.83
54453;BME280;40363;52.270;10.546;2022-11-20T00:44:20;78022.91;;;-147.06;76.93
54453;BME280;40363;52.270;10.546;2022-11-20T00:46:46;78027.00;;;-147.06;76.95
54453;BME280;40363;52.270;10.546;2022-11-20T00:49:13;78033.19;;;-147.06;77.01
54453;BME280;40363;52.270;10.546;2022-11-20T00:51:40;78037.28;;;-147.06;77.13
54453;BME280;40363;52.270;10.546;2022-11-20T00:54:08;78035.22;;;-147.06;77.18
54453;BME280;40363;52.270;10.546;2022-11-20T00:56:34;78053.75;;;-147.06;76.96
54453;BME280;40363;52.270;10.546;2022-11-20T00:59:01;78064.03;;;-147.06;77.34
54453;BME280;40363;52.270;10.546;2022-11-20T01:01:27;78051.69;;;-147.06;77.51
54453;BME280;40363;52.270;10.546;2022-11-20T01:03:56;78057.84;;;-147.06;77.34
54453;BME280;40363;52.270;10.546;2022-11-20T01:06:24;78051.69;;;-147.06;77.57
54453;BME280;40363;52.270;10.546;2022-11-20T01:08:54;78061.97;;;-147.06;77.58
54453;BME280;40363;52.270;10.546;2022-11-20T01:11:24;78051.69;;;-147.06;77.39
54453;BME280;40363;52.270;10.546;2022-11-20T01:13:52;78055.78;;;-147.06;77.24
54453;BME280;40363;52.270;10.546;2022-11-20T01:16:20;78064.03;;;-147.06;77.65
54453;BME280;40363;52.270;10.546;2022-11-20T01:18:49;78072.25;;;-147.06;77.84
54453;BME280;40363;52.270;10.546;2022-11-20T01:21:18;78070.19;;;-147.06;77.83
54453;BME280;40363;52.270;10.546;2022-11-20T01:23:45;78064.03;;;-147.06;77.85
54453;BME280;40363;52.270;10.546;2022-11-20T01:26:15;78068.13;;;-147.06;77.81
54453;BME280;40363;52.270;10.546;2022-11-20T01:28:43;78072.25;;;-147.06;78.09
54453;BME280;40363;52.270;10.546;2022-11-20T01:31:12;78068.13;;;-147.06;77.95
54453;BME280;40363;52.270;10.546;2022-11-20T01:33:39;78072.25;;;-147.06;77.67
54453;BME280;40363;52.270;10.546;2022-11-20T01:36:07;78070.19;;;-147.06;78.29
54453;BME280;40363;52.270;10.546;2022-11-20T01:38:34;78068.13;;;-147.06;78.34
54453;BME280;40363;52.270;10.546;2022-11-20T01:41:01;78072.25;;;-147.06;78.00
54453;BME280;40363;52.270;10.546;2022-11-20T01:43:28;78068.13;;;-147.06;78.16
54453;BME280;40363;52.270;10.546;2022-11-20T01:46:04;78059.91;;;-147.06;78.16
54453;BME280;40363;52.270;10.546;2022-11-20T01:48:38;78066.06;;;-147.06;78.35
54453;BME280;40363;52.270;10.546;2022-11-20T01:51:13;78072.25;;;-147.06;78.97
54453;BME280;40363;52.270;10.546;2022-11-20T01:53:41;78080.47;;;-147.06;79.88
54453;BME280;40363;52.270;10.546;2022-11-20T01:56:10;78078.41;;;-147.06;79.59
54453;BME280;40363;52.270;10.546;2022-11-20T01:58:41;78088.69;;;-147.06;80.53
54453;BME280;40363;52.270;10.546;2022-11-20T02:01:10;78084.59;;;-147.06;80.81
54453;BME280;40363;52.270;10.546;2022-11-20T02:03:37;78090.75;;;-147.06;80.33
54453;BME280;40363;52.270;10.546;2022-11-20T02:06:07;78092.81;;;-147.06;81.12
54453;BME280;40363;52.270;10.546;2022-11-20T02:08:37;78109.25;;;-147.06;81.73
54453;BME280;40363;52.270;10.546;2022-11-20T02:11:04;78113.38;;;-147.06;81.74
54453;BME280;40363;52.270;10.546;2022-11-20T02:13:31;78111.31;;;-147.06;81.67
54453;BME280;40363;52.270;10.546;2022-11-20T02:16:15;78113.38;;;-147.06;81.64
54453;BME280;40363;52.270;10.546;2022-11-20T02:18:43;78142.16;;;-147.06;82.19
54453;BME280;40363;52.270;10.546;2022-11-20T02:21:17;78125.72;;;-147.06;82.33
54453;BME280;40363;52.270;10.546;2022-11-20T02:24:05;78115.44;;;-147.06;82.06
54453;BME280;40363;52.270;10.546;2022-11-20T02:26:37;78107.19;;;-147.06;82.55
54453;BME280;40363;52.270;10.546;2022-11-20T02:29:05;78096.91;;;-147.06;82.30
54453;BME280;40363;52.270;10.546;2022-11-20T02:31:41;78068.13;;;-147.06;81.78
54453;BME280;40363;52.270;10.546;2022-11-20T02:34:09;78055.78;;;-147.06;80.63
54453;BME280;40363;52.270;10.546;2022-11-20T02:36:36;78055.78;;;-147.06;80.44
54453;BME280;40363;52.270;10.546;2022-11-20T02:39:06;78053.75;;;-147.06;80.35
54453;BME280;40363;52.270;10.546;2022-11-20T02:41:37;78053.75;;;-147.06;80.61
54453;BME280;40363;52.270;10.546;2022-11-20T02:44:04;78047.56;;;-147.06;80.01
54453;BME280;40363;52.270;10.546;2022-11-20T02:46:31;78037.28;;;-147.06;79.76
54453;BME280;40363;52.270;10.546;2022-11-20T02:48:58;78045.50;;;-147.06;80.13
54453;BME280;40363;52.270;10.546;2022-11-20T02:51:25;78037.28;;;-147.06;80.05
54453;BME280;40363;52.270;10.546;2022-11-20T02:53:51;78055.78;;;-147.06;81.38
54453;BME280;40363;52.270;10.546;2022-11-20T02:56:19;78059.91;;;-147.06;81.50
54453;BME280;40363;52.270;10.546;2022-11-20T02:58:46;78049.63;;;-147.06;81.91
54453;BME280;40363;52.270;10.546;2022-11-20T03:01:13;78037.28;;;-147.06;81.03
54453;BME280;40363;52.270;10.546;2022-11-20T03:03:40;78033.19;;;-147.06;81.27
54453;BME280;40363;52.270;10.546;2022-11-20T03:06:07;78027.00;;;-147.06;81.79
54453;BME280;40363;52.270;10.546;2022-11-20T03:08:34;78031.13;;;-147.06;82.19
54453;BME280;40363;52.270;10.546;2022-11-20T03:11:05;78031.13;;;-147.06;80.95
54453;BME280;40363;52.270;10.546;2022-11-20T03:13:34;78022.91;;;-147.06;80.35
54453;BME280;40363;52.270;10.546;2022-11-20T03:16:09;78014.66;;;-147.06;80.50
54453;BME280;40363;52.270;10.546;2022-11-20T03:18:36;78018.78;;;-147.06;79.33
54453;BME280;40363;52.270;10.546;2022-11-20T03:21:04;78002.34;;;-147.06;79.35
54453;BME280;40363;52.270;10.546;2022-11-20T03:23:31;78002.34;;;-147.06;78.63
54453;BME280;40363;52.270;10.546;2022-11-20T03:26:09;78008.50;;;-147.06;78.24
54453;BME280;40363;52.270;10.546;2022-11-20T03:28:37;78002.34;;;-147.06;78.56
54453;BME280;40363;52.270;10.546;2022-11-20T03:31:08;77990.00;;;-147.06;77.88
54453;BME280;40363;52.270;10.546;2022-11-20T03:33:35;78004.38;;;-147.06;78.11
54453;BME280;40363;52.270;10.546;2022-11-20T03:36:02;78006.44;;;-147.06;77.90
54453;BME280;40363;52.270;10.546;2022-11-20T03:38:30;78002.34;;;-147.06;77.78
54453;BME280;40363;52.270;10.546;2022-11-20T03:41:01;77990.00;;;-147.06;77.37
54453;BME280;40363;52.270;10.546;2022-11-20T03:43:28;78000.28;;;-147.06;77.93
54453;BME280;40363;52.270;10.546;2022-11-20T03:45:56;78002.34;;;-147.06;77.72
54453;BME280;40363;52.270;10.546;2022-11-20T03:48:22;77992.06;;;-147.06;77.88
54453;BME280;40363;52.270;10.546;2022-11-20T03:50:49;77987.94;;;-147.06;77.69
54453;BME280;40363;52.270;10.546;2022-11-20T03:53:16;77992.06;;;-147.06;77.93
54453;BME280;40363;52.270;10.546;2022-11-20T03:55:43;77990.00;;;-147.06;77.55
54453;BME280;40363;52.270;10.546;2022-11-20T03:58:10;77983.81;;;-147.06;77.39
54453;BME280;40363;52.270;10.546;2022-11-20T04:00:36;77992.06;;;-147.06;77.49
54453;BME280;40363;52.270;10.546;2022-11-20T04:03:04;77983.81;;;-147.06;77.39
54453;BME280;40363;52.270;10.546;2022-11-20T04:05:32;77994.09;;;-147.06;77.32
54453;BME280;40363;52.270;10.546;2022-11-20T04:07:59;77996.16;;;-147.06;77.30
54453;BME280;40363;52.270;10.546;2022-11-20T04:10:26;77998.22;;;-147.06;77.36
54453;BME280;40363;52.270;10.546;2022-11-20T04:12:53;78008.50;;;-147.06;77.48
54453;BME280;40363;52.270;10.546;2022-11-20T04:15:19;78002.34;;;-147.06;78.57
54453;BME280;40363;52.270;10.546;2022-11-20T04:17:46;78008.50;;;-147.06;79.78
54453;BME280;40363;52.270;10.546;2022-11-20T04:20:14;78027.00;;;-147.06;80.52
54453;BME280;40363;52.270;10.546;2022-11-20T04:22:40;78027.00;;;-147.06;81.11
54453;BME280;40363;52.270;10.546;2022-11-20T04:25:08;78041.41;;;-147.06;81.22
54453;BME280;40363;52.270;10.546;2022-11-20T04:27:34;78033.19;;;-147.06;80.85
54453;BME280;40363;52.270;10.546;2022-11-20T04:30:01;78041.41;;;-147.06;81.01
54453;BME280;40363;52.270;10.546;2022-11-20T04:32:28;78043.47;;;-147.06;81.83
54453;BME280;40363;52.270;10.546;2022-11-20T04:34:54;78035.22;;;-147.06;80.39
54453;BME280;40363;52.270;10.546;2022-11-20T04:37:22;78029.06;;;-147.06;80.14
54453;BME280;40363;52.270;10.546;2022-11-20T04:39:49;78020.84;;;-147.06;79.37
54453;BME280;40363;52.270;10.546;2022-11-20T04:42:15;78027.00;;;-147.06;79.76
54453;BME280;40363;52.270;10.546;2022-11-20T04:44:54;78027.00;;;-147.06;80.43
54453;BME280;40363;52.270;10.546;2022-11-20T04:47:21;78055.78;;;-147.06;81.02
54453;BME280;40363;52.270;10.546;2022-11-20T04:49:48;78068.13;;;-147.06;81.78
54453;BME280;40363;52.270;10.546;2022-11-20T04:52:15;78084.59;;;-147.06;81.73
54453;BME280;40363;52.270;10.546;2022-11-20T04:54:43;78088.69;;;-147.06;82.02
54453;BME280;40363;52.270;10.546;2022-11-20T04:57:09;78086.63;;;-147.06;82.03
54453;BME280;40363;52.270;10.546;2022-11-20T04:59:36;78076.34;;;-147.06;82.29
54453;BME280;40363;52.270;10.546;2022-11-20T05:02:02;78092.81;;;-147.06;81.95
54453;BME280;40363;52.270;10.546;2022-11-20T05:04:29;78080.47;;;-147.06;82.20
54453;BME280;40363;52.270;10.546;2022-11-20T05:06:55;78090.75;;;-147.06;82.54
54453;BME280;40363;52.270;10.546;2022-11-20T05:09:22;78088.69;;;-147.06;82.70
54453;BME280;40363;52.270;10.546;2022-11-20T05:11:50;78082.53;;;-147.06;82.56
54453;BME280;40363;52.270;10.546;2022-11-20T05:14:16;78082.53;;;-147.06;83.24
54453;BME280;40363;52.270;10.546;2022-11-20T05:16:43;78070.19;;;-147.06;83.43
54453;BME280;40363;52.270;10.546;2022-11-20T05:19:10;78061.97;;;-147.06;83.08
54453;BME280;40363;52.270;10.546;2022-11-20T05:21:36;78055.78;;;-147.06;83.28
54453;BME280;40363;52.270;10.546;2022-11-20T05:24:03;78066.06;;;-147.06;83.71
54453;BME280;40363;52.270;10.546;2022-11-20T05:26:31;78051.69;;;-147.06;82.85
54453;BME280;40363;52.270;10.546;2022-11-20T05:28:59;78049.63;;;-147.06;83.60
54453;BME280;40363;52.270;10.546;2022-11-20T05:31:25;78051.69;;;-147.06;83.81
54453;BME280;40363;52.270;10.546;2022-11-20T05:33:52;78055.78;;;-147.06;83.67
54453;BME280;40363;52.270;10.546;2022-11-20T05:36:18;78031.13;;;-147.06;82.51
54453;BME280;40363;52.270;10.546;2022-11-20T05:38:45;78018.78;;;-147.06;81.00
54453;BME280;40363;52.270;10.546;2022-11-20T05:41:13;78006.44;;;-147.06;79.69
54453;BME280;40363;52.270;10.546;2022-11-20T05:43:41;78002.34;;;-147.06;79.52
54453;BME280;40363;52.270;10.546;2022-11-20T05:46:11;77990.00;;;-147.06;79.49
54453;BME280;40363;52.270;10.546;2022-11-20T05:48:40;77981.78;;;-147.06;78.85
54453;BME280;40363;52.270;10.546;2022-11-20T05:51:09;77973.56;;;-147.06;78.44
54453;BME280;40363;52.270;10.546;2022-11-20T05:53:37;77963.28;;;-147.06;78.02
54453;BME280;40363;52.270;10.546;2022-11-20T05:56:05;77965.31;;;-147.06;78.07
54453;BME280;40363;52.270;10.546;2022-11-20T05:58:32;77961.22;;;-147.06;78.40
54453;BME280;40363;52.270;10.546;2022-11-20T06:01:04;77969.44;;;-147.06;77.97
54453;BME280;40363;52.270;10.546;2022-11-20T06:03:32;77977.66;;;-147.06;77.94
54453;BME280;40363;52.270;10.546;2022-11-20T06:06:01;77987.94;;;-147.06;77.54
54453;BME280;40363;52.270;10.546;2022-11-20T06:08:28;77985.88;;;-147.06;78.08
54453;BME280;40363;52.270;10.546;2022-11-20T06:10:55;77965.31;;;-147.06;77.74
54453;BME280;40363;52.270;10.546;2022-11-20T06:13:21;77975.59;;;-147.06;77.72
54453;BME280;40363;52.270;10.546;2022-11-20T06:15:49;77969.44;;;-147.06;77.59
54453;BME280;40363;52.270;10.546;2022-11-20T06:18:16;77973.56;;;-147.06;77.62
54453;BME280;40363;52.270;10.546;2022-11-20T06:20:44;77946.81;;;-147.06;77.20
54453;BME280;40363;52.270;10.546;2022-11-20T06:23:11;77944.75;;;-147.06;76.74
54453;BME280;40363;52.270;10.546;2022-11-20T06:25:38;77946.81;;;-147.06;76.52
54453;BME280;40363;52.270;10.546;2022-11-20T06:28:05;77938.59;;;-147.06;76.36
54453;BME280;40363;52.270;10.546;2022-11-20T06:30:32;77924.19;;;-147.06;76.31
54453;BME280;40363;52.270;10.546;2022-11-20T06:32:58;77920.09;;;-147.06;76.16
54453;BME280;40363;52.270;10.546;2022-11-20T06:35:25;77903.63;;;-147.06;75.82
54453;BME280;40363;52.270;10.546;2022-11-20T06:37:53;77897.47;;;-147.06;75.94
54453;BME280;40363;52.270;10.546;2022-11-20T06:40:19;77911.88;;;-147.06;75.70
54453;BME280;40363;52.270;10.546;2022-11-20T06:42:46;77899.53;;;-147.06;75.64
54453;BME280;40363;52.270;10.546;2022-11-20T06:45:13;77905.69;;;-147.06;75.50
54453;BME280;40363;52.270;10.546;2022-11-20T06:47:39;77911.88;;;-147.06;75.68
54453;BME280;40363;52.270;10.546;2022-11-20T06:50:06;77909.81;;;-147.06;75.24
54453;BME280;40363;52.270;10.546;2022-11-20T06:52:33;77903.63;;;-147.06;75.87
54453;BME280;40363;52.270;10.546;2022-11-20T06:55:02;77895.41;;;-147.06;75.52
54453;BME280;40363;52.270;10.546;2022-11-20T06:57:28;77899.53;;;-147.06;75.61
54453;BME280;40363;52.270;10.546;2022-11-20T06:59:55;77911.88;;;-147.06;75.56
54453;BME280;40363;52.270;10.546;2022-11-20T07:02:22;77909.81;;;-147.06;75.90
54453;BME280;40363;52.270;10.546;2022-11-20T07:04:48;77897.47;;;-147.06;75.36
54453;BME280;40363;52.270;10.546;2022-11-20T07:07:15;77897.47;;;-147.06;75.46
54453;BME280;40363;52.270;10.546;2022-11-20T07:09:44;77907.75;;;-147.06;75.65
54453;BME280;40363;52.270;10.546;2022-11-20T07:12:12;77901.59;;;-147.06;75.68
54453;BME280;40363;52.270;10.546;2022-11-20T07:14:39;77895.41;;;-147.06;75.14
54453;BME280;40363;52.270;10.546;2022-11-20T07:17:05;77891.31;;;-147.06;75.55
54453;BME280;40363;52.270;10.546;2022-11-20T07:19:32;77887.19;;;-147.06;75.73
54453;BME280;40363;52.270;10.546;2022-11-20T07:21:59;77878.97;;;-147.06;75.51
54453;BME280;40363;52.270;10.546;2022-11-20T07:24:29;77891.31;;;-147.06;75.54
54453;BME280;40363;52.270;10.546;2022-11-20T07:26:56;77881.03;;;-147.06;75.68
54453;BME280;40363;52.270;10.546;2022-11-20T07:29:24;77889.25;;;-147.06;75.91
54453;BME280;40363;52.270;10.546;2022-11-20T07:31:50;77887.19;;;-147.06;75.92
54453;BME280;40363;52.270;10.546;2022-11-20T07:34:17;77903.63;;;-147.06;75.88
54453;BME280;40363;52.270;10.546;2022-11-20T07:36:45;77905.69;;;-147.06;76.10
54453;BME280;40363;52.270;10.546;2022-11-20T07:39:11;77893.34;;;-147.06;76.31
54453;BME280;40363;52.270;10.546;2022-11-20T07:41:38;77891.31;;;-147.06;75.87
54453;BME280;40363;52.270;10.546;2022-11-20T07:44:05;77891.31;;;-147.06;76.54
54453;BME280;40363;52.270;10.546;2022-11-20T07:46:33;77864.56;;;-147.06;77.77
54453;BME280;40363;52.270;10.546;2022-11-20T07:48:59;77868.69;;;-147.06;76.17
54453;BME280;40363;52.270;10.546;2022-11-20T07:51:26;77841.97;;;-147.06;76.32
54453;BME280;40363;52.270;10.546;2022-11-20T07:53:54;77837.84;;;-147.06;75.74
54453;BME280;40363;52.270;10.546;2022-11-20T07:56:21;77837.84;;;-147.06;74.45
54453;BME280;40363;52.270;10.546;2022-11-20T07:58:47;77844.00;;;-147.06;74.42
54453;BME280;40363;52.270;10.546;2022-11-20T08:01:14;77850.19;;;-147.06;73.34
54453;BME280;40363;52.270;10.546;2022-11-20T08:03:42;77846.06;;;-147.06;73.87
54453;BME280;40363;52.270;10.546;2022-11-20T08:06:09;77860.47;;;-147.06;73.17
54453;BME280;40363;52.270;10.546;2022-11-20T08:08:35;77850.19;;;-147.06;72.80
54453;BME280;40363;52.270;10.546;2022-11-20T08:11:03;77860.47;;;-147.06;72.70
54453;BME280;40363;52.270;10.546;2022-11-20T08:13:47;77844.00;;;-147.06;72.50
54453;BME280;40363;52.270;10.546;2022-11-20T08:16:31;77858.41;;;-147.06;72.35
54453;BME280;40363;52.270;10.546;2022-11-20T08:18:59;77852.25;;;-147.06;72.59
54453;BME280;40363;52.270;10.546;2022-11-20T08:21:26;77844.00;;;-147.06;72.22
54453;BME280;40363;52.270;10.546;2022-11-20T08:23:52;77841.97;;;-147.06;71.97
54453;BME280;40363;52.270;10.546;2022-11-20T08:26:20;77844.00;;;-147.06;72.16
54453;BME280;40363;52.270;10.546;2022-11-20T08:28:47;77839.91;;;-147.06;72.02
54453;BME280;40363;52.270;10.546;2022-11-20T08:31:14;77833.72;;;-147.06;71.26
54453;BME280;40363;52.270;10.546;2022-11-20T08:33:40;77833.72;;;-147.06;71.79
54453;BME280;40363;52.270;10.546;2022-11-20T08:36:09;77825.50;;;-147.06;71.03
54453;BME280;40363;52.270;10.546;2022-11-20T08:38:35;77825.50;;;-147.06;71.19
54453;BME280;40363;52.270;10.546;2022-11-20T08:41:04;77829.63;;;-147.06;70.54
54453;BME280;40363;52.270;10.546;2022-11-20T08:43:48;77831.69;;;-147.06;70.49
54453;BME280;40363;52.270;10.546;2022-11-20T08:46:15;77813.16;;;-147.06;70.21
54453;BME280;40363;52.270;10.546;2022-11-20T08:48:42;77809.06;;;-147.06;70.14
54453;BME280;40363;52.270;10.546;2022-11-20T08:51:11;77798.78;;;-147.06;70.03
54453;BME280;40363;52.270;10.546;2022-11-20T08:53:38;77800.84;;;-147.06;69.93
54453;BME280;40363;52.270;10.546;2022-11-20T08:56:05;77790.56;;;-147.06;70.16
54453;BME280;40363;52.270;10.546;2022-11-20T08:58:32;77788.50;;;-147.06;70.39
54453;BME280;40363;52.270;10.546;2022-11-20T09:00:59;77778.22;;;-147.06;70.07
54453;BME280;40363;52.270;10.546;2022-11-20T09:03:25;77765.88;;;-147.06;69.97
54453;BME280;40363;52.270;10.546;2022-11-20T09:05:57;77757.66;;;-147.06;70.10
54453;BME280;40363;52.270;10.546;2022-11-20T09:08:26;77747.38;;;-147.06;70.33
54453;BME280;40363;52.270;10.546;2022-11-20T09:10:53;77753.53;;;-147.06;70.22
54453;BME280;40363;52.270;10.546;2022-11-20T09:13:20;77755.59;;;-147.06;69.92
54453;BME280;40363;52.270;10.546;2022-11-20T09:15:47;77747.38;;;-147.06;69.65
54453;BME280;40363;52.270;10.546;2022-11-20T09:18:18;77745.31;;;-147.06;69.59
54453;BME280;40363;52.270;10.546;2022-11-20T09:20:45;77739.16;;;-147.06;70.08
54453;BME280;40363;52.270;10.546;2022-11-20T09:23:12;77730.94;;;-147.06;69.58
54453;BME280;40363;52.270;10.546;2022-11-20T09:25:39;77718.59;;;-147.06;68.70
54453;BME280;40363;52.270;10.546;2022-11-20T09:28:06;77702.16;;;-147.06;68.89
54453;BME280;40363;52.270;10.546;2022-11-20T09:30:33;77685.69;;;-147.06;68.11
54453;BME280;40363;52.270;10.546;2022-11-20T09:32:59;77671.31;;;-147.06;67.52
54453;BME280;40363;52.270;10.546;2022-11-20T09:35:26;77656.91;;;-147.06;67.34
54453;BME280;40363;52.270;10.546;2022-11-20T09:37:53;77650.75;;;-147.06;67.08
54453;BME280;40363;52.270;10.546;2022-11-20T09:40:21;77628.13;;;-147.06;67.10
54453;BME280;40363;52.270;10.546;2022-11-20T09:42:55;77603.47;;;-147.06;66.32
54453;BME280;40363;52.270;10.546;2022-11-20T09:45:37;77589.06;;;-147.06;65.09
54453;BME280;40363;52.270;10.546;2022-11-20T09:48:20;77603.47;;;-147.06;65.22
54453;BME280;40363;52.270;10.546;2022-11-20T09:50:56;77611.69;;;-147.06;65.08
54453;BME280;40363;52.270;10.546;2022-11-20T09:53:33;77599.34;;;-147.06;64.44
54453;BME280;40363;52.270;10.546;2022-11-20T09:56:02;77603.47;;;-147.06;64.59
54453;BME280;40363;52.270;10.546;2022-11-20T09:58:34;77587.00;;;-147.06;64.53
54453;BME280;40363;52.270;10.546;2022-11-20T10:01:08;77587.00;;;-147.06;63.71
54453;BME280;40363;52.270;10.546;2022-11-20T10:03:41;77587.00;;;-147.06;63.41
54453;BME280;40363;52.270;10.546;2022-11-20T10:06:17;77576.72;;;-147.06;63.56
54453;BME280;40363;52.270;10.546;2022-11-20T10:08:48;77566.44;;;-147.06;63.41
54453;BME280;40363;52.270;10.546;2022-11-20T10:11:21;77554.13;;;-147.06;62.89
54453;BME280;40363;52.270;10.546;2022-11-20T10:14:00;77541.78;;;-147.06;62.81
54453;BME280;40363;52.270;10.546;2022-11-20T10:16:38;77527.38;;;-147.06;62.46
54453;BME280;40363;52.270;10.546;2022-11-20T10:19:21;77517.13;;;-147.06;62.03
54453;BME280;40363;52.270;10.546;2022-11-20T10:21:59;77504.78;;;-147.06;61.63
54453;BME280;40363;52.270;10.546;2022-11-20T10:24:42;77492.44;;;-147.06;61.34
54453;BME280;40363;52.270;10.546;2022-11-20T10:27:24;77484.22;;;-147.06;61.35
54453;BME280;40363;52.270;10.546;2022-11-20T10:30:01;77465.72;;;-147.06;61.08
54453;BME280;40363;52.270;10.546;2022-11-20T10:32:36;77471.88;;;-147.06;61.25
54453;BME280;40363;52.270;10.546;2022-11-20T10:35:09;77471.88;;;-147.06;60.47
54453;BME280;40363;52.270;10.546;2022-11-20T10:37:44;77471.88;;;-147.06;60.30
54453;BME280;40363;52.270;10.546;2022-11-20T10:40:21;77457.50;;;-147.06;60.01
54453;BME280;40363;52.270;10.546;2022-11-20T10:42:52;77463.66;;;-147.06;59.59
54453;BME280;40363;52.270;10.546;2022-11-20T10:45:32;77457.50;;;-147.06;60.34
54453;BME280;40363;52.270;10.546;2022-11-20T10:48:10;77463.66;;;-147.06;59.96
54453;BME280;40363;52.270;10.546;2022-11-20T10:50:44;77471.88;;;-147.06;59.90
54453;BME280;40363;52.270;10.546;2022-11-20T10:53:15;77476.00;;;-147.06;60.09
54453;BME280;40363;52.270;10.546;2022-11-20T10:55:45;77459.53;;;-147.06;60.33
54453;BME280;40363;52.270;10.546;2022-11-20T10:58:16;77451.31;;;-147.06;60.42
54453;BME280;40363;52.270;10.546;2022-11-20T11:00:48;77443.09;;;-147.06;60.66
54453;BME280;40363;52.270;10.546;2022-11-20T11:03:22;77430.75;;;-147.06;60.62
54453;BME280;40363;52.270;10.546;2022-11-20T11:05:54;77416.38;;;-147.06;60.31
54453;BME280;40363;52.270;10.546;2022-11-20T11:08:26;77414.31;;;-147.06;60.65
54453;BME280;40363;52.270;10.546;2022-11-20T11:10:57;77445.16;;;-147.06;61.06
54453;BME280;40363;52.270;10.546;2022-11-20T11:13:28;77459.53;;;-147.06;61.85
54453;BME280;40363;52.270;10.546;2022-11-20T11:15:56;77461.59;;;-147.06;61.90
54453;BME280;40363;52.270;10.546;2022-11-20T11:18:25;77469.81;;;-147.06;62.46
54453;BME280;40363;52.270;10.546;2022-11-20T11:20:54;77457.50;;;-147.06;62.11
54453;BME280;40363;52.270;10.546;2022-11-20T11:23:32;77453.38;;;-147.06;62.46
54453;BME280;40363;52.270;10.546;2022-11-20T11:26:02;77455.44;;;-147.06;62.51
54453;BME280;40363;52.270;10.546;2022-11-20T11:28:29;77459.53;;;-147.06;62.89
54453;BME280;40363;52.270;10.546;2022-11-20T11:30:57;77447.22;;;-147.06;62.56
54453;BME280;40363;52.270;10.546;2022-11-20T11:33:25;77441.03;;;-147.06;62.60
54453;BME280;40363;52.270;10.546;2022-11-20T11:35:53;77443.09;;;-147.06;63.06
54453;BME280;40363;52.270;10.546;2022-11-20T11:38:29;77420.50;;;-147.06;62.76
54453;BME280;40363;52.270;10.546;2022-11-20T11:40:57;77360.88;;;-147.06;61.64
54453;BME280;40363;52.270;10.546;2022-11-20T11:43:25;77332.09;;;-147.06;60.94
54453;BME280;40363;52.270;10.546;2022-11-20T11:46:24;77290.97;;;-147.06;59.58
54453;BME280;40363;52.270;10.546;2022-11-20T11:48:55;77282.75;;;-147.06;59.61
54453;BME280;40363;52.270;10.546;2022-11-20T11:51:25;77274.53;;;-147.06;59.25
54453;BME280;40363;52.270;10.546;2022-11-20T11:53:54;77280.69;;;-147.06;59.22
54453;BME280;40363;52.270;10.546;2022-11-20T11:56:23;77268.34;;;-147.06;58.78
54453;BME280;40363;52.270;10.546;2022-11-20T11:58:51;77266.31;;;-147.06;59.12
54453;BME280;40363;52.270;10.546;2022-11-20T12:01:28;77290.97;;;-147.06;58.93
54453;BME280;40363;52.270;10.546;2022-11-20T12:04:02;77315.63;;;-147.06;59.22
54453;BME280;40363;52.270;10.546;2022-11-20T12:06:32;77336.19;;;-147.06;59.95
54453;BME280;40363;52.270;10.546;2022-11-20T12:09:02;77350.59;;;-147.06;60.10
54453;BME280;40363;52.270;10.546;2022-11-20T12:11:32;77369.09;;;-147.06;60.65
54453;BME280;40363;52.270;10.546;2022-11-20T12:14:09;77375.25;;;-147.06;61.12
54453;BME280;40363;52.270;10.546;2022-11-20T12:16:41;77393.75;;;-147.06;61.38
54453;BME280;40363;52.270;10.546;2022-11-20T12:19:10;77387.59;;;-147.06;61.87
54453;BME280;40363;52.270;10.546;2022-11-20T12:21:46;77379.38;;;-147.06;61.87
54453;BME280;40363;52.270;10.546;2022-11-20T12:24:36;77364.97;;;-147.06;62.21
54453;BME280;40363;52.270;10.546;2022-11-20T12:27:38;77350.59;;;-147.06;61.36
54453;BME280;40363;52.270;10.546;2022-11-20T12:30:09;77373.19;;;-147.06;60.76
54453;BME280;40363;52.270;10.546;2022-11-20T12:33:07;77367.03;;;-147.06;60.34
54453;BME280;40363;52.270;10.546;2022-11-20T12:35:56;77369.09;;;-147.06;60.69
54453;BME280;40363;52.270;10.546;2022-11-20T12:38:45;77373.19;;;-147.06;60.69
54453;BME280;40363;52.270;10.546;2022-11-20T12:41:25;77375.25;;;-147.06;60.91